sensor_id;sensor_type;location;lat;lon;timestamp;P1;durP1;ratioP1;P2;durP2;ratioP2
59418;SDS011;45224;50.904;6.038;2022-08-19T00:00:15;29.20;;;21.88;;
59418;SDS011;45224;50.904;6.038;2022-08-19T00:01:47;28.80;;;21.70;;
59418;SDS011;45224;50.904;6.038;2022-08-19T00:03:19;27.35;;;20.58;;
59418;SDS011;45224;50.904;6.038;2022-08-19T00:04:50;32.37;;;25.00;;
59418;SDS011;45224;50.904;6.038;2022-08-19T00:06:22;32.83;;;24.40;;
59418;SDS011;45224;50.904;6.038;2022-08-19T00:07:53;27.53;;;22.40;;
59418;SDS011;45224;50.904;6.038;2022-08-19T00:09:24;28.27;;;20.48;;
59418;SDS011;45224;50.904;6.038;2022-08-19T00:10:54;28.23;;;21.02;;
59418;SDS011;45224;50.904;6.038;2022-08-19T00:12:25;32.73;;;23.73;;
59418;SDS011;45224;50.904;6.038;2022-08-19T00:13:56;31.83;;;23.77;;
59418;SDS011;45224;50.904;6.038;2022-08-19T00:15:27;27.83;;;21.55;;
59418;SDS011;45224;50.904;6.038;2022-08-19T00:16:57;30.98;;;23.55;;
59418;SDS011;45224;50.904;6.038;2022-08-19T00:18:28;29.55;;;22.23;;
59418;SDS011;45224;50.904;6.038;2022-08-19T00:19:58;26.67;;;21.33;;
59418;SDS011;45224;50.904;6.038;2022-08-19T00:21:29;25.83;;;20.95;;
59418;SDS011;45224;50.904;6.038;2022-08-19T00:23:00;32.88;;;24.73;;
59418;SDS011;45224;50.904;6.038;2022-08-19T00:24:30;26.40;;;20.90;;
59418;SDS011;45224;50.904;6.038;2022-08-19T00:27:35;27.25;;;20.20;;
59418;SDS011;45224;50.904;6.038;2022-08-19T00:29:06;28.70;;;22.42;;
59418;SDS011;45224;50.904;6.038;2022-08-19T00:30:37;29.08;;;21.67;;
59418;SDS011;45224;50.904;6.038;2022-08-19T00:32:08;31.05;;;22.90;;
59418;SDS011;45224;50.904;6.038;2022-08-19T00:33:38;31.93;;;23.23;;
59418;SDS011;45224;50.904;6.038;2022-08-19T00:35:09;31.85;;;24.85;;
59418;SDS011;45224;50.904;6.038;2022-08-19T00:36:40;31.55;;;23.45;;
59418;SDS011;45224;50.904;6.038;2022-08-19T00:38:11;28.17;;;22.15;;
59418;SDS011;45224;50.904;6.038;2022-08-19T00:39:41;31.90;;;24.07;;
59418;SDS011;45224;50.904;6.038;2022-08-19T00:41:17;35.07;;;25.07;;
59418;SDS011;45224;50.904;6.038;2022-08-19T00:42:51;32.65;;;22.75;;
59418;SDS011;45224;50.904;6.038;2022-08-19T00:44:26;32.15;;;25.10;;
59418;SDS011;45224;50.904;6.038;2022-08-19T00:45:58;35.65;;;25.02;;
59418;SDS011;45224;50.904;6.038;2022-08-19T00:47:29;30.67;;;23.33;;
59418;SDS011;45224;50.904;6.038;2022-08-19T00:49:00;29.90;;;22.10;;
59418;SDS011;45224;50.904;6.038;2022-08-19T00:50:32;33.25;;;23.15;;
59418;SDS011;45224;50.904;6.038;2022-08-19T00:52:04;28.25;;;21.00;;
59418;SDS011;45224;50.904;6.038;2022-08-19T00:53:42;27.65;;;21.42;;
59418;SDS011;45224;50.904;6.038;2022-08-19T00:56:54;24.30;;;18.10;;
59418;SDS011;45224;50.904;6.038;2022-08-19T00:58:26;28.30;;;19.80;;
59418;SDS011;45224;50.904;6.038;2022-08-19T00:59:58;27.33;;;19.75;;
59418;SDS011;45224;50.904;6.038;2022-08-19T01:01:30;29.80;;;23.05;;
59418;SDS011;45224;50.904;6.038;2022-08-19T01:03:01;31.17;;;22.73;;
59418;SDS011;45224;50.904;6.038;2022-08-19T01:04:31;31.23;;;22.80;;
59418;SDS011;45224;50.904;6.038;2022-08-19T01:06:02;31.17;;;22.55;;
59418;SDS011;45224;50.904;6.038;2022-08-19T01:07:33;28.33;;;22.13;;
59418;SDS011;45224;50.904;6.038;2022-08-19T01:09:05;31.58;;;23.80;;
59418;SDS011;45224;50.904;6.038;2022-08-19T01:10:37;32.42;;;22.17;;
59418;SDS011;45224;50.904;6.038;2022-08-19T01:12:10;29.90;;;22.63;;
59418;SDS011;45224;50.904;6.038;2022-08-19T01:13:41;30.27;;;22.40;;
59418;SDS011;45224;50.904;6.038;2022-08-19T01:15:12;31.05;;;24.20;;
59418;SDS011;45224;50.904;6.038;2022-08-19T01:16:45;31.23;;;23.70;;
59418;SDS011;45224;50.904;6.038;2022-08-19T01:18:17;31.58;;;24.35;;
59418;SDS011;45224;50.904;6.038;2022-08-19T01:19:49;33.05;;;24.48;;
59418;SDS011;45224;50.904;6.038;2022-08-19T01:21:34;33.13;;;24.52;;
59418;SDS011;45224;50.904;6.038;2022-08-19T01:23:12;31.50;;;23.83;;
59418;SDS011;45224;50.904;6.038;2022-08-19T01:24:44;30.60;;;23.40;;
59418;SDS011;45224;50.904;6.038;2022-08-19T01:26:16;30.23;;;22.90;;
59418;SDS011;45224;50.904;6.038;2022-08-19T01:27:49;34.17;;;23.65;;
59418;SDS011;45224;50.904;6.038;2022-08-19T01:29:20;31.42;;;23.70;;
59418;SDS011;45224;50.904;6.038;2022-08-19T01:30:50;31.87;;;23.90;;
59418;SDS011;45224;50.904;6.038;2022-08-19T01:32:22;32.92;;;24.90;;
59418;SDS011;45224;50.904;6.038;2022-08-19T01:33:53;31.02;;;22.67;;
59418;SDS011;45224;50.904;6.038;2022-08-19T01:35:26;31.20;;;23.83;;
59418;SDS011;45224;50.904;6.038;2022-08-19T01:36:58;32.90;;;23.38;;
59418;SDS011;45224;50.904;6.038;2022-08-19T01:38:29;32.87;;;24.13;;
59418;SDS011;45224;50.904;6.038;2022-08-19T01:40:01;30.75;;;22.20;;
59418;SDS011;45224;50.904;6.038;2022-08-19T01:41:33;31.25;;;23.65;;
59418;SDS011;45224;50.904;6.038;2022-08-19T01:46:06;30.97;;;21.83;;
59418;SDS011;45224;50.904;6.038;2022-08-19T01:47:37;30.77;;;22.67;;
59418;SDS011;45224;50.904;6.038;2022-08-19T01:49:08;32.40;;;23.00;;
59418;SDS011;45224;50.904;6.038;2022-08-19T01:50:38;29.73;;;22.63;;
59418;SDS011;45224;50.904;6.038;2022-08-19T01:52:09;33.05;;;23.98;;
59418;SDS011;45224;50.904;6.038;2022-08-19T01:53:39;33.57;;;23.57;;
59418;SDS011;45224;50.904;6.038;2022-08-19T01:55:13;32.90;;;23.88;;
59418;SDS011;45224;50.904;6.038;2022-08-19T01:56:46;32.47;;;22.40;;
59418;SDS011;45224;50.904;6.038;2022-08-19T01:58:19;32.30;;;23.50;;
59418;SDS011;45224;50.904;6.038;2022-08-19T01:59:54;36.63;;;24.85;;
59418;SDS011;45224;50.904;6.038;2022-08-19T02:01:24;33.03;;;22.87;;
59418;SDS011;45224;50.904;6.038;2022-08-19T02:02:55;30.35;;;21.40;;
59418;SDS011;45224;50.904;6.038;2022-08-19T02:04:26;38.92;;;26.52;;
59418;SDS011;45224;50.904;6.038;2022-08-19T02:05:58;31.60;;;23.20;;
59418;SDS011;45224;50.904;6.038;2022-08-19T02:07:30;32.42;;;23.35;;
59418;SDS011;45224;50.904;6.038;2022-08-19T02:09:00;38.40;;;25.10;;
59418;SDS011;45224;50.904;6.038;2022-08-19T02:10:31;31.83;;;23.58;;
59418;SDS011;45224;50.904;6.038;2022-08-19T02:12:03;29.58;;;22.88;;
59418;SDS011;45224;50.904;6.038;2022-08-19T02:13:34;32.92;;;22.02;;
59418;SDS011;45224;50.904;6.038;2022-08-19T02:15:05;34.95;;;24.48;;
59418;SDS011;45224;50.904;6.038;2022-08-19T02:16:37;32.03;;;23.08;;
59418;SDS011;45224;50.904;6.038;2022-08-19T02:18:08;32.05;;;23.52;;
59418;SDS011;45224;50.904;6.038;2022-08-19T02:19:39;34.58;;;24.80;;
59418;SDS011;45224;50.904;6.038;2022-08-19T02:21:09;31.20;;;22.47;;
59418;SDS011;45224;50.904;6.038;2022-08-19T02:25:43;28.90;;;19.50;;
59418;SDS011;45224;50.904;6.038;2022-08-19T02:27:15;30.90;;;21.73;;
59418;SDS011;45224;50.904;6.038;2022-08-19T02:28:46;31.67;;;22.85;;
59418;SDS011;45224;50.904;6.038;2022-08-19T02:30:18;32.75;;;23.55;;
59418;SDS011;45224;50.904;6.038;2022-08-19T02:31:49;30.65;;;22.20;;
59418;SDS011;45224;50.904;6.038;2022-08-19T02:33:20;34.83;;;24.00;;
59418;SDS011;45224;50.904;6.038;2022-08-19T02:34:50;36.77;;;24.97;;
59418;SDS011;45224;50.904;6.038;2022-08-19T02:36:21;28.87;;;22.07;;
59418;SDS011;45224;50.904;6.038;2022-08-19T02:37:52;35.97;;;23.65;;
59418;SDS011;45224;50.904;6.038;2022-08-19T02:39:41;32.03;;;23.02;;
59418;SDS011;45224;50.904;6.038;2022-08-19T02:41:15;32.50;;;22.70;;
59418;SDS011;45224;50.904;6.038;2022-08-19T02:42:48;34.63;;;24.35;;
59418;SDS011;45224;50.904;6.038;2022-08-19T02:44:18;31.07;;;23.33;;
59418;SDS011;45224;50.904;6.038;2022-08-19T02:45:49;34.27;;;24.30;;
59418;SDS011;45224;50.904;6.038;2022-08-19T02:47:21;36.70;;;25.13;;
59418;SDS011;45224;50.904;6.038;2022-08-19T02:48:52;32.40;;;24.23;;
59418;SDS011;45224;50.904;6.038;2022-08-19T02:50:26;35.55;;;26.40;;
59418;SDS011;45224;50.904;6.038;2022-08-19T02:51:56;37.78;;;26.08;;
59418;SDS011;45224;50.904;6.038;2022-08-19T02:53:27;36.03;;;25.77;;
59418;SDS011;45224;50.904;6.038;2022-08-19T02:54:58;39.22;;;27.17;;
59418;SDS011;45224;50.904;6.038;2022-08-19T02:56:30;33.97;;;23.33;;
59418;SDS011;45224;50.904;6.038;2022-08-19T02:58:01;38.40;;;26.48;;
59418;SDS011;45224;50.904;6.038;2022-08-19T02:59:31;37.83;;;26.58;;
59418;SDS011;45224;50.904;6.038;2022-08-19T03:01:02;36.35;;;26.17;;
59418;SDS011;45224;50.904;6.038;2022-08-19T03:02:33;38.33;;;26.83;;
59418;SDS011;45224;50.904;6.038;2022-08-19T03:04:04;40.00;;;27.63;;
59418;SDS011;45224;50.904;6.038;2022-08-19T03:05:36;37.03;;;26.02;;
59418;SDS011;45224;50.904;6.038;2022-08-19T03:07:06;40.90;;;28.40;;
59418;SDS011;45224;50.904;6.038;2022-08-19T03:08:37;38.67;;;26.53;;
59418;SDS011;45224;50.904;6.038;2022-08-19T03:10:08;40.47;;;28.85;;
59418;SDS011;45224;50.904;6.038;2022-08-19T03:11:39;44.97;;;28.85;;
59418;SDS011;45224;50.904;6.038;2022-08-19T03:13:14;43.03;;;29.67;;
59418;SDS011;45224;50.904;6.038;2022-08-19T03:14:46;43.20;;;29.23;;
59418;SDS011;45224;50.904;6.038;2022-08-19T03:16:21;45.30;;;30.13;;
59418;SDS011;45224;50.904;6.038;2022-08-19T03:17:53;43.28;;;30.88;;
59418;SDS011;45224;50.904;6.038;2022-08-19T03:20:54;42.40;;;27.07;;
59418;SDS011;45224;50.904;6.038;2022-08-19T03:22:26;50.63;;;32.45;;
59418;SDS011;45224;50.904;6.038;2022-08-19T03:23:57;47.15;;;33.00;;
59418;SDS011;45224;50.904;6.038;2022-08-19T03:25:29;45.25;;;29.65;;
59418;SDS011;45224;50.904;6.038;2022-08-19T03:27:00;45.93;;;31.17;;
59418;SDS011;45224;50.904;6.038;2022-08-19T03:28:30;43.05;;;28.50;;
59418;SDS011;45224;50.904;6.038;2022-08-19T03:30:02;46.70;;;30.77;;
59418;SDS011;45224;50.904;6.038;2022-08-19T03:31:33;56.15;;;32.70;;
59418;SDS011;45224;50.904;6.038;2022-08-19T03:33:03;43.50;;;30.17;;
59418;SDS011;45224;50.904;6.038;2022-08-19T03:34:35;44.33;;;28.83;;
59418;SDS011;45224;50.904;6.038;2022-08-19T03:36:08;46.05;;;30.27;;
59418;SDS011;45224;50.904;6.038;2022-08-19T03:37:47;45.55;;;31.25;;
59418;SDS011;45224;50.904;6.038;2022-08-19T03:39:17;46.57;;;30.50;;
59418;SDS011;45224;50.904;6.038;2022-08-19T03:40:48;49.45;;;32.33;;
59418;SDS011;45224;50.904;6.038;2022-08-19T03:42:18;51.27;;;33.17;;
59418;SDS011;45224;50.904;6.038;2022-08-19T03:43:49;43.43;;;30.10;;
59418;SDS011;45224;50.904;6.038;2022-08-19T03:45:20;45.28;;;30.48;;
59418;SDS011;45224;50.904;6.038;2022-08-19T03:46:54;50.80;;;30.13;;
59418;SDS011;45224;50.904;6.038;2022-08-19T03:48:26;45.83;;;30.38;;
59418;SDS011;45224;50.904;6.038;2022-08-19T03:49:56;49.70;;;32.07;;
59418;SDS011;45224;50.904;6.038;2022-08-19T03:51:31;52.70;;;31.98;;
59418;SDS011;45224;50.904;6.038;2022-08-19T03:53:04;53.92;;;32.28;;
59418;SDS011;45224;50.904;6.038;2022-08-19T03:54:36;50.60;;;33.17;;
59418;SDS011;45224;50.904;6.038;2022-08-19T03:56:09;50.42;;;34.90;;
59418;SDS011;45224;50.904;6.038;2022-08-19T03:57:39;47.95;;;31.27;;
59418;SDS011;45224;50.904;6.038;2022-08-19T03:59:14;47.07;;;31.23;;
59418;SDS011;45224;50.904;6.038;2022-08-19T04:00:47;49.58;;;32.88;;
59418;SDS011;45224;50.904;6.038;2022-08-19T04:02:18;56.72;;;34.75;;
59418;SDS011;45224;50.904;6.038;2022-08-19T04:03:49;59.60;;;37.88;;
59418;SDS011;45224;50.904;6.038;2022-08-19T04:05:19;55.95;;;35.30;;
59418;SDS011;45224;50.904;6.038;2022-08-19T04:06:50;60.92;;;34.22;;
59418;SDS011;45224;50.904;6.038;2022-08-19T04:08:21;55.65;;;34.05;;
59418;SDS011;45224;50.904;6.038;2022-08-19T04:09:52;52.35;;;32.08;;
59418;SDS011;45224;50.904;6.038;2022-08-19T04:11:25;53.05;;;33.65;;
59418;SDS011;45224;50.904;6.038;2022-08-19T04:12:58;52.15;;;33.72;;
59418;SDS011;45224;50.904;6.038;2022-08-19T04:14:29;53.03;;;33.47;;
59418;SDS011;45224;50.904;6.038;2022-08-19T04:16:00;55.33;;;34.30;;
59418;SDS011;45224;50.904;6.038;2022-08-19T04:17:30;60.20;;;35.57;;
59418;SDS011;45224;50.904;6.038;2022-08-19T04:19:02;50.63;;;32.72;;
59418;SDS011;45224;50.904;6.038;2022-08-19T04:20:42;62.90;;;37.75;;
59418;SDS011;45224;50.904;6.038;2022-08-19T04:22:15;51.85;;;33.78;;
59418;SDS011;45224;50.904;6.038;2022-08-19T04:23:45;54.20;;;35.20;;
59418;SDS011;45224;50.904;6.038;2022-08-19T04:25:16;62.25;;;37.03;;
59418;SDS011;45224;50.904;6.038;2022-08-19T04:26:46;56.93;;;36.40;;
59418;SDS011;45224;50.904;6.038;2022-08-19T04:29:48;54.87;;;33.80;;
59418;SDS011;45224;50.904;6.038;2022-08-19T04:31:19;63.00;;;37.40;;
59418;SDS011;45224;50.904;6.038;2022-08-19T04:32:57;60.78;;;35.50;;
59418;SDS011;45224;50.904;6.038;2022-08-19T04:34:28;58.55;;;34.72;;
59418;SDS011;45224;50.904;6.038;2022-08-19T04:35:59;56.90;;;35.58;;
59418;SDS011;45224;50.904;6.038;2022-08-19T04:37:30;58.00;;;34.83;;
59418;SDS011;45224;50.904;6.038;2022-08-19T04:39:07;63.78;;;35.50;;
59418;SDS011;45224;50.904;6.038;2022-08-19T04:40:40;60.97;;;35.17;;
59418;SDS011;45224;50.904;6.038;2022-08-19T04:42:30;60.05;;;35.45;;
59418;SDS011;45224;50.904;6.038;2022-08-19T04:44:09;65.80;;;37.88;;
59418;SDS011;45224;50.904;6.038;2022-08-19T04:45:42;62.40;;;36.08;;
59418;SDS011;45224;50.904;6.038;2022-08-19T04:47:13;62.22;;;35.70;;
59418;SDS011;45224;50.904;6.038;2022-08-19T04:48:44;65.10;;;37.33;;
59418;SDS011;45224;50.904;6.038;2022-08-19T04:50:14;60.77;;;34.87;;
59418;SDS011;45224;50.904;6.038;2022-08-19T04:51:49;62.72;;;34.50;;
59418;SDS011;45224;50.904;6.038;2022-08-19T04:53:22;62.35;;;35.28;;
59418;SDS011;45224;50.904;6.038;2022-08-19T04:55:03;62.55;;;34.28;;
59418;SDS011;45224;50.904;6.038;2022-08-19T04:56:36;63.83;;;34.60;;
59418;SDS011;45224;50.904;6.038;2022-08-19T04:58:07;64.28;;;34.85;;
59418;SDS011;45224;50.904;6.038;2022-08-19T04:59:37;67.63;;;35.80;;
59418;SDS011;45224;50.904;6.038;2022-08-19T05:01:11;68.68;;;37.33;;
59418;SDS011;45224;50.904;6.038;2022-08-19T05:02:43;64.72;;;35.55;;
59418;SDS011;45224;50.904;6.038;2022-08-19T05:04:13;63.07;;;35.07;;
59418;SDS011;45224;50.904;6.038;2022-08-19T05:05:44;69.37;;;35.17;;
59418;SDS011;45224;50.904;6.038;2022-08-19T05:07:18;72.03;;;37.67;;
59418;SDS011;45224;50.904;6.038;2022-08-19T05:08:49;71.20;;;37.20;;
59418;SDS011;45224;50.904;6.038;2022-08-19T05:10:19;59.75;;;33.80;;
59418;SDS011;45224;50.904;6.038;2022-08-19T05:11:50;61.25;;;35.65;;
59418;SDS011;45224;50.904;6.038;2022-08-19T05:13:23;68.88;;;36.67;;
59418;SDS011;45224;50.904;6.038;2022-08-19T05:14:54;72.70;;;37.50;;
59418;SDS011;45224;50.904;6.038;2022-08-19T05:16:26;71.95;;;37.03;;
59418;SDS011;45224;50.904;6.038;2022-08-19T05:19:47;63.88;;;34.10;;
59418;SDS011;45224;50.904;6.038;2022-08-19T05:21:36;63.05;;;31.13;;
59418;SDS011;45224;50.904;6.038;2022-08-19T05:23:25;70.15;;;35.03;;
59418;SDS011;45224;50.904;6.038;2022-08-19T05:24:55;61.00;;;33.17;;
59418;SDS011;45224;50.904;6.038;2022-08-19T05:26:26;71.63;;;37.97;;
59418;SDS011;45224;50.904;6.038;2022-08-19T05:27:56;70.93;;;36.67;;
59418;SDS011;45224;50.904;6.038;2022-08-19T05:29:26;67.10;;;36.00;;
59418;SDS011;45224;50.904;6.038;2022-08-19T05:30:57;69.43;;;35.63;;
59418;SDS011;45224;50.904;6.038;2022-08-19T05:32:28;71.33;;;37.00;;
59418;SDS011;45224;50.904;6.038;2022-08-19T05:33:58;68.17;;;36.77;;
59418;SDS011;45224;50.904;6.038;2022-08-19T05:35:29;70.65;;;37.40;;
59418;SDS011;45224;50.904;6.038;2022-08-19T05:37:01;72.53;;;37.42;;
59418;SDS011;45224;50.904;6.038;2022-08-19T05:38:34;72.63;;;38.13;;
59418;SDS011;45224;50.904;6.038;2022-08-19T05:41:37;62.57;;;33.37;;
59418;SDS011;45224;50.904;6.038;2022-08-19T05:43:12;70.90;;;36.08;;
59418;SDS011;45224;50.904;6.038;2022-08-19T05:44:45;68.00;;;36.40;;
59418;SDS011;45224;50.904;6.038;2022-08-19T05:46:18;79.88;;;39.65;;
59418;SDS011;45224;50.904;6.038;2022-08-19T05:47:49;73.28;;;37.88;;
59418;SDS011;45224;50.904;6.038;2022-08-19T05:49:21;62.83;;;33.77;;
59418;SDS011;45224;50.904;6.038;2022-08-19T05:50:52;75.32;;;37.47;;
59418;SDS011;45224;50.904;6.038;2022-08-19T05:52:23;67.90;;;34.27;;
59418;SDS011;45224;50.904;6.038;2022-08-19T05:53:53;71.83;;;37.10;;
59418;SDS011;45224;50.904;6.038;2022-08-19T05:55:24;67.17;;;34.90;;
59418;SDS011;45224;50.904;6.038;2022-08-19T05:56:54;69.17;;;37.30;;
59418;SDS011;45224;50.904;6.038;2022-08-19T05:58:25;67.05;;;35.50;;
59418;SDS011;45224;50.904;6.038;2022-08-19T05:59:56;69.50;;;36.10;;
59418;SDS011;45224;50.904;6.038;2022-08-19T06:02:57;63.03;;;33.43;;
59418;SDS011;45224;50.904;6.038;2022-08-19T06:04:29;62.67;;;32.92;;
59418;SDS011;45224;50.904;6.038;2022-08-19T06:06:00;63.47;;;34.73;;
59418;SDS011;45224;50.904;6.038;2022-08-19T06:07:30;58.85;;;31.38;;
59418;SDS011;45224;50.904;6.038;2022-08-19T06:09:02;57.40;;;32.97;;
59418;SDS011;45224;50.904;6.038;2022-08-19T06:10:34;57.42;;;32.08;;
59418;SDS011;45224;50.904;6.038;2022-08-19T06:12:06;59.60;;;31.63;;
59418;SDS011;45224;50.904;6.038;2022-08-19T06:13:37;63.17;;;35.13;;
59418;SDS011;45224;50.904;6.038;2022-08-19T06:15:09;63.35;;;33.28;;
59418;SDS011;45224;50.904;6.038;2022-08-19T06:16:42;58.13;;;32.17;;
59418;SDS011;45224;50.904;6.038;2022-08-19T06:18:13;57.22;;;30.30;;
59418;SDS011;45224;50.904;6.038;2022-08-19T06:19:45;53.30;;;30.10;;
59418;SDS011;45224;50.904;6.038;2022-08-19T06:21:15;55.77;;;30.07;;
59418;SDS011;45224;50.904;6.038;2022-08-19T06:22:46;56.93;;;31.50;;
59418;SDS011;45224;50.904;6.038;2022-08-19T06:24:21;57.25;;;30.90;;
59418;SDS011;45224;50.904;6.038;2022-08-19T06:25:54;57.85;;;32.20;;
59418;SDS011;45224;50.904;6.038;2022-08-19T06:27:24;56.80;;;30.35;;
59418;SDS011;45224;50.904;6.038;2022-08-19T06:28:55;53.13;;;30.15;;
59418;SDS011;45224;50.904;6.038;2022-08-19T06:30:25;50.83;;;29.23;;
59418;SDS011;45224;50.904;6.038;2022-08-19T06:31:57;54.63;;;28.95;;
59418;SDS011;45224;50.904;6.038;2022-08-19T06:33:29;52.20;;;27.92;;
59418;SDS011;45224;50.904;6.038;2022-08-19T06:34:59;51.70;;;29.03;;
59418;SDS011;45224;50.904;6.038;2022-08-19T06:36:37;52.57;;;29.20;;
59418;SDS011;45224;50.904;6.038;2022-08-19T06:38:10;48.63;;;26.27;;
59418;SDS011;45224;50.904;6.038;2022-08-19T06:39:42;48.77;;;26.27;;
59418;SDS011;45224;50.904;6.038;2022-08-19T06:41:13;48.00;;;27.65;;
59418;SDS011;45224;50.904;6.038;2022-08-19T06:42:44;54.97;;;28.90;;
59418;SDS011;45224;50.904;6.038;2022-08-19T06:44:14;49.50;;;27.27;;
59418;SDS011;45224;50.904;6.038;2022-08-19T06:45:45;50.63;;;27.48;;
59418;SDS011;45224;50.904;6.038;2022-08-19T06:47:17;48.05;;;26.95;;
59418;SDS011;45224;50.904;6.038;2022-08-19T06:48:50;51.33;;;29.77;;
59418;SDS011;45224;50.904;6.038;2022-08-19T06:50:23;50.40;;;27.25;;
59418;SDS011;45224;50.904;6.038;2022-08-19T06:51:54;47.88;;;27.63;;
59418;SDS011;45224;50.904;6.038;2022-08-19T06:53:26;49.05;;;27.58;;
59418;SDS011;45224;50.904;6.038;2022-08-19T06:54:58;47.92;;;25.40;;
59418;SDS011;45224;50.904;6.038;2022-08-19T06:56:30;48.60;;;27.75;;
59418;SDS011;45224;50.904;6.038;2022-08-19T06:58:04;55.17;;;30.38;;
59418;SDS011;45224;50.904;6.038;2022-08-19T06:59:34;45.85;;;26.08;;
59418;SDS011;45224;50.904;6.038;2022-08-19T07:01:06;52.17;;;29.00;;
59418;SDS011;45224;50.904;6.038;2022-08-19T07:02:37;54.90;;;30.60;;
59418;SDS011;45224;50.904;6.038;2022-08-19T07:04:08;56.47;;;30.60;;
59418;SDS011;45224;50.904;6.038;2022-08-19T07:05:40;59.35;;;30.85;;
59418;SDS011;45224;50.904;6.038;2022-08-19T07:07:13;49.25;;;27.42;;
59418;SDS011;45224;50.904;6.038;2022-08-19T07:08:44;60.60;;;30.50;;
59418;SDS011;45224;50.904;6.038;2022-08-19T07:10:16;59.17;;;30.88;;
59418;SDS011;45224;50.904;6.038;2022-08-19T07:11:48;57.10;;;32.03;;
59418;SDS011;45224;50.904;6.038;2022-08-19T07:13:20;60.50;;;33.50;;
59418;SDS011;45224;50.904;6.038;2022-08-19T07:14:51;65.90;;;33.08;;
59418;SDS011;45224;50.904;6.038;2022-08-19T07:16:22;63.92;;;33.30;;
59418;SDS011;45224;50.904;6.038;2022-08-19T07:17:53;59.88;;;33.22;;
59418;SDS011;45224;50.904;6.038;2022-08-19T07:19:24;59.03;;;32.53;;
59418;SDS011;45224;50.904;6.038;2022-08-19T07:21:06;60.38;;;33.22;;
59418;SDS011;45224;50.904;6.038;2022-08-19T07:22:41;64.72;;;35.40;;
59418;SDS011;45224;50.904;6.038;2022-08-19T07:24:11;56.40;;;31.83;;
59418;SDS011;45224;50.904;6.038;2022-08-19T07:25:42;61.95;;;32.22;;
59418;SDS011;45224;50.904;6.038;2022-08-19T07:27:13;49.70;;;29.98;;
59418;SDS011;45224;50.904;6.038;2022-08-19T07:28:45;56.97;;;29.58;;
59418;SDS011;45224;50.904;6.038;2022-08-19T07:30:16;53.05;;;31.17;;
59418;SDS011;45224;50.904;6.038;2022-08-19T07:31:47;53.72;;;30.75;;
59418;SDS011;45224;50.904;6.038;2022-08-19T07:33:17;58.35;;;33.38;;
59418;SDS011;45224;50.904;6.038;2022-08-19T07:34:48;60.97;;;34.45;;
59418;SDS011;45224;50.904;6.038;2022-08-19T07:36:20;60.45;;;34.05;;
59418;SDS011;45224;50.904;6.038;2022-08-19T07:38:02;50.08;;;29.73;;
59418;SDS011;45224;50.904;6.038;2022-08-19T07:42:35;61.03;;;30.70;;
59418;SDS011;45224;50.904;6.038;2022-08-19T07:44:06;49.05;;;29.00;;
59418;SDS011;45224;50.904;6.038;2022-08-19T07:45:38;52.17;;;29.33;;
59418;SDS011;45224;50.904;6.038;2022-08-19T07:47:08;45.00;;;27.88;;
59418;SDS011;45224;50.904;6.038;2022-08-19T07:48:40;52.95;;;31.33;;
59418;SDS011;45224;50.904;6.038;2022-08-19T07:50:12;46.92;;;26.05;;
59418;SDS011;45224;50.904;6.038;2022-08-19T07:51:44;43.03;;;25.83;;
59418;SDS011;45224;50.904;6.038;2022-08-19T07:53:40;45.78;;;26.95;;
59418;SDS011;45224;50.904;6.038;2022-08-19T07:55:13;42.25;;;26.00;;
59418;SDS011;45224;50.904;6.038;2022-08-19T07:56:44;37.63;;;23.48;;
59418;SDS011;45224;50.904;6.038;2022-08-19T07:58:15;42.28;;;25.70;;
59418;SDS011;45224;50.904;6.038;2022-08-19T07:59:47;43.70;;;26.33;;
59418;SDS011;45224;50.904;6.038;2022-08-19T08:01:20;39.67;;;24.40;;
59418;SDS011;45224;50.904;6.038;2022-08-19T08:02:53;39.88;;;25.10;;
59418;SDS011;45224;50.904;6.038;2022-08-19T08:04:23;37.20;;;22.47;;
59418;SDS011;45224;50.904;6.038;2022-08-19T08:06:13;40.97;;;23.35;;
59418;SDS011;45224;50.904;6.038;2022-08-19T08:08:03;47.22;;;28.60;;
59418;SDS011;45224;50.904;6.038;2022-08-19T08:09:52;46.45;;;26.58;;
59418;SDS011;45224;50.904;6.038;2022-08-19T08:11:23;43.22;;;24.27;;
59418;SDS011;45224;50.904;6.038;2022-08-19T08:12:53;39.33;;;22.63;;
59418;SDS011;45224;50.904;6.038;2022-08-19T08:14:27;36.03;;;23.83;;
59418;SDS011;45224;50.904;6.038;2022-08-19T08:16:05;34.22;;;19.85;;
59418;SDS011;45224;50.904;6.038;2022-08-19T08:17:36;40.25;;;24.33;;
59418;SDS011;45224;50.904;6.038;2022-08-19T08:19:07;31.15;;;18.70;;
59418;SDS011;45224;50.904;6.038;2022-08-19T08:20:38;33.13;;;19.85;;
59418;SDS011;45224;50.904;6.038;2022-08-19T08:22:10;33.58;;;20.67;;
59418;SDS011;45224;50.904;6.038;2022-08-19T08:24:00;29.90;;;18.30;;
59418;SDS011;45224;50.904;6.038;2022-08-19T08:27:01;32.03;;;17.65;;
59418;SDS011;45224;50.904;6.038;2022-08-19T08:28:32;29.60;;;18.52;;
59418;SDS011;45224;50.904;6.038;2022-08-19T08:31:39;27.77;;;17.15;;
59418;SDS011;45224;50.904;6.038;2022-08-19T08:33:11;33.55;;;17.63;;
59418;SDS011;45224;50.904;6.038;2022-08-19T08:36:12;30.55;;;16.95;;
59418;SDS011;45224;50.904;6.038;2022-08-19T08:37:44;29.25;;;17.42;;
59418;SDS011;45224;50.904;6.038;2022-08-19T08:39:17;26.00;;;16.60;;
59418;SDS011;45224;50.904;6.038;2022-08-19T08:42:25;24.35;;;15.07;;
59418;SDS011;45224;50.904;6.038;2022-08-19T08:44:00;26.60;;;14.10;;
59418;SDS011;45224;50.904;6.038;2022-08-19T08:45:35;27.02;;;15.23;;
59418;SDS011;45224;50.904;6.038;2022-08-19T08:47:13;25.52;;;14.98;;
59418;SDS011;45224;50.904;6.038;2022-08-19T08:50:34;18.08;;;11.27;;
59418;SDS011;45224;50.904;6.038;2022-08-19T08:52:11;18.13;;;11.35;;
59418;SDS011;45224;50.904;6.038;2022-08-19T08:53:48;21.60;;;12.50;;
59418;SDS011;45224;50.904;6.038;2022-08-19T08:55:22;19.55;;;11.52;;
59418;SDS011;45224;50.904;6.038;2022-08-19T08:56:55;19.23;;;11.80;;
59418;SDS011;45224;50.904;6.038;2022-08-19T08:59:57;16.63;;;11.25;;
59418;SDS011;45224;50.904;6.038;2022-08-19T09:01:30;18.25;;;10.93;;
59418;SDS011;45224;50.904;6.038;2022-08-19T09:03:01;16.88;;;10.95;;
59418;SDS011;45224;50.904;6.038;2022-08-19T09:04:34;26.42;;;11.80;;
59418;SDS011;45224;50.904;6.038;2022-08-19T09:06:07;16.73;;;9.95;;
59418;SDS011;45224;50.904;6.038;2022-08-19T09:07:52;16.83;;;10.52;;
59418;SDS011;45224;50.904;6.038;2022-08-19T09:09:32;15.50;;;9.50;;
59418;SDS011;45224;50.904;6.038;2022-08-19T09:11:09;16.45;;;10.32;;
59418;SDS011;45224;50.904;6.038;2022-08-19T09:14:58;20.80;;;11.70;;
59418;SDS011;45224;50.904;6.038;2022-08-19T09:16:31;22.00;;;11.57;;
59418;SDS011;45224;50.904;6.038;2022-08-19T09:18:02;20.40;;;10.63;;
59418;SDS011;45224;50.904;6.038;2022-08-19T09:19:35;17.73;;;11.10;;
59418;SDS011;45224;50.904;6.038;2022-08-19T09:21:17;20.85;;;12.77;;
59418;SDS011;45224;50.904;6.038;2022-08-19T09:22:47;19.23;;;10.68;;
59418;SDS011;45224;50.904;6.038;2022-08-19T09:24:19;17.05;;;10.00;;
59418;SDS011;45224;50.904;6.038;2022-08-19T09:25:49;24.52;;;12.43;;
59418;SDS011;45224;50.904;6.038;2022-08-19T09:27:21;17.13;;;11.07;;
59418;SDS011;45224;50.904;6.038;2022-08-19T09:28:56;20.45;;;11.45;;
59418;SDS011;45224;50.904;6.038;2022-08-19T09:30:29;18.50;;;11.55;;
59418;SDS011;45224;50.904;6.038;2022-08-19T09:32:02;21.33;;;13.10;;